sensor_id;sensor_type;location;lat;lon;timestamp;pressure;altitude;pressure_sealevel;temperature;humidity
80976;BME280;70437;49.466;11.002;2023-06-22T00:00:26;98284.25;;;20.01;75.14
80976;BME280;70437;49.466;11.002;2023-06-22T00:02:54;98283.41;;;20.05;74.99
80976;BME280;70437;49.466;11.002;2023-06-22T00:05:22;98296.50;;;19.93;75.72
80976;BME280;70437;49.466;11.002;2023-06-22T00:07:51;98299.00;;;19.84;75.94
80976;BME280;70437;49.466;11.002;2023-06-22T00:10:19;98307.75;;;19.76;76.08
80976;BME280;70437;49.466;11.002;2023-06-22T00:12:47;98308.03;;;19.75;76.29
80976;BME280;70437;49.466;11.002;2023-06-22T00:15:15;98300.72;;;19.70;76.44
80976;BME280;70437;49.466;11.002;2023-06-22T00:17:43;98300.44;;;19.66;76.64
80976;BME280;70437;49.466;11.002;2023-06-22T00:20:11;98309.94;;;19.74;75.97
80976;BME280;70437;49.466;11.002;2023-06-22T00:22:39;98313.19;;;19.71;75.89
80976;BME280;70437;49.466;11.002;2023-06-22T00:25:07;98315.38;;;19.64;76.35
80976;BME280;70437;49.466;11.002;2023-06-22T00:27:36;98334.94;;;19.71;75.82
80976;BME280;70437;49.466;11.002;2023-06-22T00:30:07;98322.69;;;19.79;75.19
80976;BME280;70437;49.466;11.002;2023-06-22T00:32:35;98318.03;;;19.84;75.18
80976;BME280;70437;49.466;11.002;2023-06-22T00:35:03;98334.91;;;19.76;75.57
80976;BME280;70437;49.466;11.002;2023-06-22T00:37:31;98335.16;;;19.85;75.35
80976;BME280;70437;49.466;11.002;2023-06-22T00:39:59;98350.66;;;19.84;74.98
80976;BME280;70437;49.466;11.002;2023-06-22T00:42:26;98354.72;;;19.82;75.25
80976;BME280;70437;49.466;11.002;2023-06-22T00:44:54;98348.47;;;19.91;74.88
80976;BME280;70437;49.466;11.002;2023-06-22T00:47:24;98354.50;;;19.73;75.58
80976;BME280;70437;49.466;11.002;2023-06-22T00:49:55;98355.00;;;19.85;75.19
80976;BME280;70437;49.466;11.002;2023-06-22T00:52:24;98360.66;;;19.94;74.75
80976;BME280;70437;49.466;11.002;2023-06-22T00:54:57;98349.31;;;19.87;75.05
80976;BME280;70437;49.466;11.002;2023-06-22T00:57:26;98342.56;;;19.64;75.88
80976;BME280;70437;49.466;11.002;2023-06-22T00:59:58;98331.97;;;19.57;76.39
80976;BME280;70437;49.466;11.002;2023-06-22T01:02:26;98347.19;;;19.63;75.91
80976;BME280;70437;49.466;11.002;2023-06-22T01:04:54;98347.78;;;19.60;75.93
80976;BME280;70437;49.466;11.002;2023-06-22T01:07:37;98348.00;;;19.64;75.80
80976;BME280;70437;49.466;11.002;2023-06-22T01:10:07;98335.81;;;19.61;75.58
80976;BME280;70437;49.466;11.002;2023-06-22T01:12:55;98324.94;;;19.46;76.46
80976;BME280;70437;49.466;11.002;2023-06-22T01:15:36;98310.56;;;19.40;76.84
80976;BME280;70437;49.466;11.002;2023-06-22T01:18:08;98297.59;;;19.17;77.43
80976;BME280;70437;49.466;11.002;2023-06-22T01:20:39;98289.22;;;19.03;78.25
80976;BME280;70437;49.466;11.002;2023-06-22T01:28:53;98268.84;;;18.96;78.50
80976;BME280;70437;49.466;11.002;2023-06-22T01:31:26;98259.34;;;19.03;78.25
80976;BME280;70437;49.466;11.002;2023-06-22T01:34:02;98259.34;;;19.03;78.24
80976;BME280;70437;49.466;11.002;2023-06-22T01:36:32;98254.75;;;18.99;78.35
80976;BME280;70437;49.466;11.002;2023-06-22T01:39:02;98274.00;;;19.02;78.12
80976;BME280;70437;49.466;11.002;2023-06-22T01:41:36;98279.44;;;19.07;77.67
80976;BME280;70437;49.466;11.002;2023-06-22T01:44:05;98276.72;;;19.02;78.06
80976;BME280;70437;49.466;11.002;2023-06-22T01:46:37;98276.44;;;19.09;77.72
80976;BME280;70437;49.466;11.002;2023-06-22T01:49:07;98279.44;;;19.07;77.88
80976;BME280;70437;49.466;11.002;2023-06-22T01:51:36;98268.00;;;19.15;77.42
80976;BME280;70437;49.466;11.002;2023-06-22T01:54:06;98273.19;;;19.07;77.90
80976;BME280;70437;49.466;11.002;2023-06-22T01:56:35;98270.47;;;19.07;77.96
80976;BME280;70437;49.466;11.002;2023-06-22T01:59:13;98275.88;;;19.12;77.54
80976;BME280;70437;49.466;11.002;2023-06-22T02:01:47;98281.81;;;19.19;77.26
80976;BME280;70437;49.466;11.002;2023-06-22T02:04:25;98284.28;;;19.26;77.10
80976;BME280;70437;49.466;11.002;2023-06-22T02:06:56;98285.59;;;19.28;76.65
80976;BME280;70437;49.466;11.002;2023-06-22T02:09:29;98287.53;;;19.23;76.85
80976;BME280;70437;49.466;11.002;2023-06-22T02:11:59;98300.56;;;19.21;76.82
80976;BME280;70437;49.466;11.002;2023-06-22T02:14:28;98307.63;;;19.22;76.84
80976;BME280;70437;49.466;11.002;2023-06-22T02:16:57;98306.78;;;19.31;76.38
80976;BME280;70437;49.466;11.002;2023-06-22T02:19:27;98296.78;;;19.16;76.86
80976;BME280;70437;49.466;11.002;2023-06-22T02:21:54;98296.50;;;19.13;77.14
80976;BME280;70437;49.466;11.002;2023-06-22T02:24:23;98302.50;;;19.00;77.90
80976;BME280;70437;49.466;11.002;2023-06-22T02:26:51;98303.84;;;19.17;77.30
80976;BME280;70437;49.466;11.002;2023-06-22T02:29:21;98299.50;;;19.06;77.32
80976;BME280;70437;49.466;11.002;2023-06-22T02:31:48;98295.19;;;18.95;78.12
80976;BME280;70437;49.466;11.002;2023-06-22T02:34:17;98293.34;;;18.75;78.58
80976;BME280;70437;49.466;11.002;2023-06-22T02:36:50;98309.84;;;18.79;78.28
80976;BME280;70437;49.466;11.002;2023-06-22T02:39:23;98326.41;;;18.92;77.53
80976;BME280;70437;49.466;11.002;2023-06-22T02:41:53;98340.22;;;19.06;77.13
80976;BME280;70437;49.466;11.002;2023-06-22T02:44:22;98372.00;;;19.06;77.03
80976;BME280;70437;49.466;11.002;2023-06-22T02:46:52;98389.91;;;19.22;76.39
80976;BME280;70437;49.466;11.002;2023-06-22T02:49:23;98402.69;;;19.27;76.26
80976;BME280;70437;49.466;11.002;2023-06-22T02:51:51;98410.31;;;18.99;77.31
80976;BME280;70437;49.466;11.002;2023-06-22T02:54:21;98414.88;;;18.88;77.52
80976;BME280;70437;49.466;11.002;2023-06-22T02:56:54;98410.03;;;18.85;77.65
80976;BME280;70437;49.466;11.002;2023-06-22T02:59:22;98411.94;;;18.80;78.20
80976;BME280;70437;49.466;11.002;2023-06-22T03:01:58;98414.66;;;18.80;78.00
80976;BME280;70437;49.466;11.002;2023-06-22T03:04:30;98421.13;;;18.74;78.29
80976;BME280;70437;49.466;11.002;2023-06-22T03:06:58;98418.38;;;18.68;78.28
80976;BME280;70437;49.466;11.002;2023-06-22T03:09:33;98413.47;;;18.60;78.60
80976;BME280;70437;49.466;11.002;2023-06-22T03:12:51;98400.19;;;18.49;78.97
80976;BME280;70437;49.466;11.002;2023-06-22T03:15:19;98396.09;;;18.51;79.01
80976;BME280;70437;49.466;11.002;2023-06-22T03:17:52;98396.34;;;18.34;79.40
80976;BME280;70437;49.466;11.002;2023-06-22T03:20:23;98396.31;;;18.29;80.01
80976;BME280;70437;49.466;11.002;2023-06-22T03:22:51;98391.97;;;18.28;79.68
80976;BME280;70437;49.466;11.002;2023-06-22T03:25:22;98392.28;;;18.32;79.57
80976;BME280;70437;49.466;11.002;2023-06-22T03:27:50;98382.75;;;18.29;79.48
80976;BME280;70437;49.466;11.002;2023-06-22T03:30:18;98373.28;;;18.27;79.94
80976;BME280;70437;49.466;11.002;2023-06-22T03:32:51;98368.38;;;18.29;79.39
80976;BME280;70437;49.466;11.002;2023-06-22T03:35:23;98363.78;;;18.24;79.93
80976;BME280;70437;49.466;11.002;2023-06-22T03:37:50;98364.06;;;18.23;80.16
80976;BME280;70437;49.466;11.002;2023-06-22T03:40:18;98364.59;;;18.30;80.23
80976;BME280;70437;49.466;11.002;2023-06-22T03:42:46;98373.53;;;18.30;79.79
80976;BME280;70437;49.466;11.002;2023-06-22T03:45:16;98357.56;;;18.39;79.82
80976;BME280;70437;49.466;11.002;2023-06-22T03:47:45;98352.69;;;18.41;79.36
80976;BME280;70437;49.466;11.002;2023-06-22T03:50:14;98361.34;;;18.33;79.69
80976;BME280;70437;49.466;11.002;2023-06-22T03:52:42;98353.16;;;18.12;80.49
80976;BME280;70437;49.466;11.002;2023-06-22T03:55:10;98337.19;;;18.21;80.10
80976;BME280;70437;49.466;11.002;2023-06-22T03:57:38;98335.56;;;18.25;80.09
80976;BME280;70437;49.466;11.002;2023-06-22T04:00:06;98333.94;;;18.19;80.09
80976;BME280;70437;49.466;11.002;2023-06-22T04:02:39;98339.34;;;18.19;79.96
80976;BME280;70437;49.466;11.002;2023-06-22T04:05:08;98334.75;;;18.19;79.93
80976;BME280;70437;49.466;11.002;2023-06-22T04:07:36;98314.69;;;18.21;79.45
80976;BME280;70437;49.466;11.002;2023-06-22T04:10:06;98308.44;;;18.30;79.31
80976;BME280;70437;49.466;11.002;2023-06-22T04:12:38;98310.63;;;18.33;79.25
80976;BME280;70437;49.466;11.002;2023-06-22T04:15:06;98321.47;;;18.28;79.06
80976;BME280;70437;49.466;11.002;2023-06-22T04:17:36;98306.03;;;18.39;78.81
80976;BME280;70437;49.466;11.002;2023-06-22T04:20:05;98293.53;;;18.38;78.71
80976;BME280;70437;49.466;11.002;2023-06-22T04:22:34;98280.78;;;18.38;78.23
80976;BME280;70437;49.466;11.002;2023-06-22T04:25:02;98294.63;;;18.47;78.09
80976;BME280;70437;49.466;11.002;2023-06-22T04:27:30;98307.94;;;18.59;77.53
80976;BME280;70437;49.466;11.002;2023-06-22T04:29:59;98294.13;;;18.71;76.63
80976;BME280;70437;49.466;11.002;2023-06-22T04:32:28;98273.19;;;18.61;76.86
80976;BME280;70437;49.466;11.002;2023-06-22T04:34:56;98265.63;;;18.73;76.73
80976;BME280;70437;49.466;11.002;2023-06-22T04:37:25;98268.88;;;18.85;76.15
80976;BME280;70437;49.466;11.002;2023-06-22T04:39:54;98280.81;;;18.94;75.66
80976;BME280;70437;49.466;11.002;2023-06-22T04:42:24;98271.31;;;19.02;75.52
80976;BME280;70437;49.466;11.002;2023-06-22T04:44:52;98274.28;;;19.11;75.08
80976;BME280;70437;49.466;11.002;2023-06-22T04:47:21;98265.28;;;19.21;74.72
80976;BME280;70437;49.466;11.002;2023-06-22T04:49:49;98254.09;;;19.27;74.34
80976;BME280;70437;49.466;11.002;2023-06-22T04:52:16;98246.97;;;19.41;73.83
80976;BME280;70437;49.466;11.002;2023-06-22T04:54:49;98249.69;;;19.47;73.75
80976;BME280;70437;49.466;11.002;2023-06-22T04:58:09;98262.13;;;19.63;72.56
80976;BME280;70437;49.466;11.002;2023-06-22T05:00:37;98260.50;;;19.67;72.59
80976;BME280;70437;49.466;11.002;2023-06-22T05:03:07;98259.31;;;19.83;71.97
80976;BME280;70437;49.466;11.002;2023-06-22T05:05:47;98249.75;;;19.96;71.90
80976;BME280;70437;49.466;11.002;2023-06-22T05:08:16;98256.72;;;20.07;71.66
80976;BME280;70437;49.466;11.002;2023-06-22T05:10:43;98258.00;;;20.20;70.61
80976;BME280;70437;49.466;11.002;2023-06-22T05:13:30;98263.94;;;20.27;70.55
80976;BME280;70437;49.466;11.002;2023-06-22T05:15:58;98252.22;;;20.32;70.38
80976;BME280;70437;49.466;11.002;2023-06-22T05:18:31;98253.03;;;20.32;70.60
80976;BME280;70437;49.466;11.002;2023-06-22T05:21:01;98251.38;;;20.31;70.62
80976;BME280;70437;49.466;11.002;2023-06-22T05:23:30;98257.56;;;20.42;70.21
80976;BME280;70437;49.466;11.002;2023-06-22T05:25:58;98258.34;;;20.48;70.17
80976;BME280;70437;49.466;11.002;2023-06-22T05:28:27;98255.63;;;20.48;70.21
80976;BME280;70437;49.466;11.002;2023-06-22T05:30:54;98246.63;;;20.47;70.25
80976;BME280;70437;49.466;11.002;2023-06-22T05:33:23;98246.63;;;20.52;70.06
80976;BME280;70437;49.466;11.002;2023-06-22T05:35:51;98255.28;;;20.59;69.98
80976;BME280;70437;49.466;11.002;2023-06-22T05:38:18;98255.97;;;20.70;69.53
80976;BME280;70437;49.466;11.002;2023-06-22T05:40:47;98260.56;;;20.75;69.51
80976;BME280;70437;49.466;11.002;2023-06-22T05:43:15;98250.63;;;20.60;70.04
80976;BME280;70437;49.466;11.002;2023-06-22T05:45:42;98255.84;;;20.85;69.44
80976;BME280;70437;49.466;11.002;2023-06-22T05:48:10;98255.94;;;21.04;69.07
80976;BME280;70437;49.466;11.002;2023-06-22T05:50:38;98246.47;;;21.20;68.32
80976;BME280;70437;49.466;11.002;2023-06-22T05:53:08;98235.00;;;21.24;68.30
80976;BME280;70437;49.466;11.002;2023-06-22T05:55:36;98233.63;;;21.26;68.14
80976;BME280;70437;49.466;11.002;2023-06-22T05:58:05;98234.00;;;21.43;67.67
80976;BME280;70437;49.466;11.002;2023-06-22T06:00:33;98234.19;;;21.47;67.05
80976;BME280;70437;49.466;11.002;2023-06-22T06:03:02;98240.25;;;21.44;67.67
80976;BME280;70437;49.466;11.002;2023-06-22T06:05:33;98250.00;;;21.69;66.82
80976;BME280;70437;49.466;11.002;2023-06-22T06:08:03;98243.81;;;21.82;66.71
80976;BME280;70437;49.466;11.002;2023-06-22T06:10:35;98241.16;;;21.96;66.31
80976;BME280;70437;49.466;11.002;2023-06-22T06:13:05;98231.44;;;22.09;65.56
80976;BME280;70437;49.466;11.002;2023-06-22T06:15:35;98238.91;;;22.22;65.39
80976;BME280;70437;49.466;11.002;2023-06-22T06:18:03;98244.34;;;22.22;65.41
80976;BME280;70437;49.466;11.002;2023-06-22T06:20:33;98243.03;;;22.19;65.32
80976;BME280;70437;49.466;11.002;2023-06-22T06:23:02;98236.84;;;22.33;65.12
80976;BME280;70437;49.466;11.002;2023-06-22T06:25:41;98229.28;;;22.43;65.00
80976;BME280;70437;49.466;11.002;2023-06-22T06:28:12;98226.47;;;22.49;64.63
80976;BME280;70437;49.466;11.002;2023-06-22T06:30:42;98218.72;;;22.56;64.51
80976;BME280;70437;49.466;11.002;2023-06-22T06:33:11;98221.13;;;22.57;64.36
80976;BME280;70437;49.466;11.002;2023-06-22T06:35:39;98222.69;;;22.77;63.95
80976;BME280;70437;49.466;11.002;2023-06-22T06:38:07;98218.75;;;22.83;63.63
80976;BME280;70437;49.466;11.002;2023-06-22T06:40:35;98218.66;;;22.88;63.59
80976;BME280;70437;49.466;11.002;2023-06-22T06:43:03;98221.31;;;22.93;63.39
80976;BME280;70437;49.466;11.002;2023-06-22T06:45:32;98213.84;;;23.13;62.75
80976;BME280;70437;49.466;11.002;2023-06-22T06:48:02;98211.94;;;23.13;62.70
80976;BME280;70437;49.466;11.002;2023-06-22T06:50:30;98206.94;;;23.29;61.80
80976;BME280;70437;49.466;11.002;2023-06-22T06:53:00;98203.31;;;23.34;61.57
80976;BME280;70437;49.466;11.002;2023-06-22T06:55:28;98202.38;;;23.38;62.12
80976;BME280;70437;49.466;11.002;2023-06-22T06:58:02;98201.44;;;23.57;61.50
80976;BME280;70437;49.466;11.002;2023-06-22T07:00:33;98188.69;;;23.66;60.88
80976;BME280;70437;49.466;11.002;2023-06-22T07:03:04;98191.44;;;23.66;60.26
80976;BME280;70437;49.466;11.002;2023-06-22T07:05:32;98193.84;;;23.81;60.29
80976;BME280;70437;49.466;11.002;2023-06-22T07:08:01;98191.91;;;23.82;60.62
80976;BME280;70437;49.466;11.002;2023-06-22T07:10:30;98194.97;;;23.80;60.34
80976;BME280;70437;49.466;11.002;2023-06-22T07:12:58;98192.19;;;23.94;60.11
80976;BME280;70437;49.466;11.002;2023-06-22T07:15:27;98184.03;;;24.03;59.07
80976;BME280;70437;49.466;11.002;2023-06-22T07:17:58;98183.28;;;24.11;58.79
80976;BME280;70437;49.466;11.002;2023-06-22T07:20:27;98180.44;;;24.16;58.68
80976;BME280;70437;49.466;11.002;2023-06-22T07:22:55;98191.63;;;24.28;58.85
80976;BME280;70437;49.466;11.002;2023-06-22T07:25:23;98181.03;;;24.35;58.50
80976;BME280;70437;49.466;11.002;2023-06-22T07:28:04;98171.31;;;24.43;57.40
80976;BME280;70437;49.466;11.002;2023-06-22T07:30:33;98177.13;;;24.50;56.90
80976;BME280;70437;49.466;11.002;2023-06-22T07:33:02;98181.03;;;24.58;57.30
80976;BME280;70437;49.466;11.002;2023-06-22T07:35:32;98179.97;;;24.67;56.54
80976;BME280;70437;49.466;11.002;2023-06-22T07:38:00;98180.56;;;24.87;55.97
80976;BME280;70437;49.466;11.002;2023-06-22T07:40:32;98172.88;;;25.06;55.75
80976;BME280;70437;49.466;11.002;2023-06-22T07:43:03;98178.56;;;25.10;55.66
80976;BME280;70437;49.466;11.002;2023-06-22T07:45:31;98179.16;;;25.07;55.61
80976;BME280;70437;49.466;11.002;2023-06-22T07:48:02;98168.63;;;25.23;54.93
80976;BME280;70437;49.466;11.002;2023-06-22T07:50:31;98171.38;;;25.49;53.72
80976;BME280;70437;49.466;11.002;2023-06-22T07:53:04;98178.19;;;25.60;53.53
80976;BME280;70437;49.466;11.002;2023-06-22T07:55:32;98162.06;;;25.67;52.92
80976;BME280;70437;49.466;11.002;2023-06-22T07:58:02;98163.81;;;25.71;52.77
80976;BME280;70437;49.466;11.002;2023-06-22T08:00:29;98165.94;;;25.75;52.89
80976;BME280;70437;49.466;11.002;2023-06-22T08:02:57;98169.47;;;25.75;52.59
80976;BME280;70437;49.466;11.002;2023-06-22T08:05:25;98171.13;;;25.85;50.15
80976;BME280;70437;49.466;11.002;2023-06-22T08:07:53;98166.78;;;26.01;49.54
80976;BME280;70437;49.466;11.002;2023-06-22T08:10:22;98160.63;;;26.13;49.73
80976;BME280;70437;49.466;11.002;2023-06-22T08:12:54;98161.91;;;26.15;49.56
80976;BME280;70437;49.466;11.002;2023-06-22T08:15:22;98164.47;;;26.29;49.07
80976;BME280;70437;49.466;11.002;2023-06-22T08:17:50;98163.19;;;26.44;48.04
80976;BME280;70437;49.466;11.002;2023-06-22T08:20:23;98161.88;;;26.33;46.89
80976;BME280;70437;49.466;11.002;2023-06-22T08:22:53;98159.28;;;26.54;46.29
80976;BME280;70437;49.466;11.002;2023-06-22T08:25:30;98158.50;;;26.44;46.55
80976;BME280;70437;49.466;11.002;2023-06-22T08:28:01;98147.66;;;26.57;46.53
80976;BME280;70437;49.466;11.002;2023-06-22T08:30:30;98150.84;;;26.67;46.16
80976;BME280;70437;49.466;11.002;2023-06-22T08:32:58;98157.31;;;27.01;45.70
80976;BME280;70437;49.466;11.002;2023-06-22T08:35:26;98158.41;;;27.17;45.08
80976;BME280;70437;49.466;11.002;2023-06-22T08:37:56;98158.16;;;27.31;44.76
80976;BME280;70437;49.466;11.002;2023-06-22T08:40:25;98169.06;;;27.19;44.91
80976;BME280;70437;49.466;11.002;2023-06-22T08:42:53;98164.41;;;27.19;44.94
80976;BME280;70437;49.466;11.002;2023-06-22T08:45:22;98163.00;;;27.34;44.42
80976;BME280;70437;49.466;11.002;2023-06-22T08:47:50;98161.75;;;27.23;44.58
80976;BME280;70437;49.466;11.002;2023-06-22T08:50:17;98159.66;;;27.50;44.17
80976;BME280;70437;49.466;11.002;2023-06-22T08:52:46;98156.03;;;27.58;43.92
80976;BME280;70437;49.466;11.002;2023-06-22T08:55:14;98151.25;;;27.76;43.76
80976;BME280;70437;49.466;11.002;2023-06-22T08:57:42;98143.78;;;27.76;43.36
80976;BME280;70437;49.466;11.002;2023-06-22T09:00:18;98140.91;;;27.93;42.92
80976;BME280;70437;49.466;11.002;2023-06-22T09:02:47;98148.00;;;27.94;42.90
80976;BME280;70437;49.466;11.002;2023-06-22T09:05:16;98135.53;;;27.97;42.90
80976;BME280;70437;49.466;11.002;2023-06-22T09:07:44;98141.53;;;28.11;42.22
80976;BME280;70437;49.466;11.002;2023-06-22T09:10:11;98134.13;;;28.45;42.03
80976;BME280;70437;49.466;11.002;2023-06-22T09:12:44;98136.38;;;28.43;41.65
80976;BME280;70437;49.466;11.002;2023-06-22T09:15:23;98100.56;;;28.43;40.91
80976;BME280;70437;49.466;11.002;2023-06-22T09:18:34;98128.50;;;28.54;41.03
80976;BME280;70437;49.466;11.002;2023-06-22T09:21:44;98115.66;;;28.58;40.75
80976;BME280;70437;49.466;11.002;2023-06-22T09:24:38;98113.38;;;28.72;40.35
80976;BME280;70437;49.466;11.002;2023-06-22T09:27:25;98092.56;;;28.75;40.42
80976;BME280;70437;49.466;11.002;2023-06-22T09:30:07;98093.06;;;29.01;39.41
80976;BME280;70437;49.466;11.002;2023-06-22T09:32:49;98082.13;;;28.92;39.78
80976;BME280;70437;49.466;11.002;2023-06-22T09:35:40;98092.13;;;28.85;39.46
80976;BME280;70437;49.466;11.002;2023-06-22T09:38:16;98080.06;;;28.89;39.60
80976;BME280;70437;49.466;11.002;2023-06-22T09:41:09;98068.81;;;28.94;39.04
80976;BME280;70437;49.466;11.002;2023-06-22T09:43:52;98075.78;;;29.29;38.48
80976;BME280;70437;49.466;11.002;2023-06-22T09:46:23;98089.78;;;29.48;38.45
80976;BME280;70437;49.466;11.002;2023-06-22T09:49:19;98060.94;;;29.33;38.20
80976;BME280;70437;49.466;11.002;2023-06-22T09:52:26;98068.59;;;29.52;38.61
80976;BME280;70437;49.466;11.002;2023-06-22T09:55:32;98057.19;;;30.38;37.01
80976;BME280;70437;49.466;11.002;2023-06-22T09:58:05;98070.75;;;30.90;35.08
80976;BME280;70437;49.466;11.002;2023-06-22T10:01:03;98061.91;;;31.36;34.21
80976;BME280;70437;49.466;11.002;2023-06-22T10:03:43;98064.03;;;31.81;33.58
80976;BME280;70437;49.466;11.002;2023-06-22T10:06:15;98052.78;;;32.13;33.04
80976;BME280;70437;49.466;11.002;2023-06-22T10:08:43;98048.66;;;32.03;33.03
80976;BME280;70437;49.466;11.002;2023-06-22T10:11:12;98059.00;;;32.06;33.25
80976;BME280;70437;49.466;11.002;2023-06-22T10:13:42;98055.66;;;32.39;32.46
80976;BME280;70437;49.466;11.002;2023-06-22T10:16:12;98064.69;;;32.82;31.91
80976;BME280;70437;49.466;11.002;2023-06-22T10:18:40;98077.97;;;33.19;31.20
80976;BME280;70437;49.466;11.002;2023-06-22T10:21:09;98073.88;;;32.63;32.47
80976;BME280;70437;49.466;11.002;2023-06-22T10:23:37;98076.41;;;32.95;31.43
80976;BME280;70437;49.466;11.002;2023-06-22T10:26:05;98073.63;;;32.95;31.08
80976;BME280;70437;49.466;11.002;2023-06-22T10:28:34;98081.28;;;32.79;31.26
80976;BME280;70437;49.466;11.002;2023-06-22T10:31:03;98086.19;;;33.42;30.22
80976;BME280;70437;49.466;11.002;2023-06-22T10:33:32;98083.28;;;33.31;30.43
80976;BME280;70437;49.466;11.002;2023-06-22T10:36:01;98089.84;;;33.46;30.04
80976;BME280;70437;49.466;11.002;2023-06-22T10:38:29;98090.28;;;33.48;30.73
80976;BME280;70437;49.466;11.002;2023-06-22T10:40:57;98100.47;;;33.70;30.15
80976;BME280;70437;49.466;11.002;2023-06-22T10:43:25;98106.03;;;34.38;28.88
80976;BME280;70437;49.466;11.002;2023-06-22T10:45:54;98094.94;;;34.82;28.21
80976;BME280;70437;49.466;11.002;2023-06-22T10:48:22;98091.50;;;34.14;29.06
80976;BME280;70437;49.466;11.002;2023-06-22T10:50:49;98086.25;;;34.91;27.96
80976;BME280;70437;49.466;11.002;2023-06-22T10:53:18;98085.72;;;34.30;29.34
80976;BME280;70437;49.466;11.002;2023-06-22T10:55:46;98080.69;;;34.91;28.57
80976;BME280;70437;49.466;11.002;2023-06-22T10:58:23;98082.28;;;34.44;28.56
80976;BME280;70437;49.466;11.002;2023-06-22T11:00:51;98067.38;;;35.14;28.10
80976;BME280;70437;49.466;11.002;2023-06-22T11:03:19;98068.53;;;35.13;27.30
80976;BME280;70437;49.466;11.002;2023-06-22T11:05:47;98073.16;;;35.47;27.26
80976;BME280;70437;49.466;11.002;2023-06-22T11:08:16;98057.81;;;35.12;27.45
80976;BME280;70437;49.466;11.002;2023-06-22T11:10:44;98050.34;;;35.30;27.22
80976;BME280;70437;49.466;11.002;2023-06-22T11:13:12;98045.78;;;35.70;26.64
80976;BME280;70437;49.466;11.002;2023-06-22T11:15:40;98038.47;;;35.40;26.79
80976;BME280;70437;49.466;11.002;2023-06-22T11:18:11;98031.03;;;35.62;26.95
80976;BME280;70437;49.466;11.002;2023-06-22T11:20:39;98024.84;;;35.21;27.78
80976;BME280;70437;49.466;11.002;2023-06-22T11:25:37;98028.56;;;34.81;27.90
80976;BME280;70437;49.466;11.002;2023-06-22T11:28:05;98024.34;;;35.05;27.88
80976;BME280;70437;49.466;11.002;2023-06-22T11:30:35;98023.91;;;35.76;26.50
80976;BME280;70437;49.466;11.002;2023-06-22T11:33:03;98018.69;;;35.67;26.70
80976;BME280;70437;49.466;11.002;2023-06-22T11:35:31;98017.09;;;35.66;26.70
80976;BME280;70437;49.466;11.002;2023-06-22T11:37:59;98016.25;;;35.48;26.40
80976;BME280;70437;49.466;11.002;2023-06-22T11:40:28;98012.97;;;35.35;26.51
80976;BME280;70437;49.466;11.002;2023-06-22T11:42:56;98015.56;;;35.83;26.39
80976;BME280;70437;49.466;11.002;2023-06-22T11:45:25;98008.72;;;35.52;27.13
80976;BME280;70437;49.466;11.002;2023-06-22T11:47:52;97997.75;;;36.23;25.38
80976;BME280;70437;49.466;11.002;2023-06-22T11:50:22;97991.38;;;36.08;25.95
80976;BME280;70437;49.466;11.002;2023-06-22T11:52:52;97986.19;;;36.78;24.47
80976;BME280;70437;49.466;11.002;2023-06-22T11:55:22;97968.69;;;36.17;25.53
80976;BME280;70437;49.466;11.002;2023-06-22T11:57:55;97973.88;;;36.51;25.55
80976;BME280;70437;49.466;11.002;2023-06-22T12:00:26;97964.28;;;36.52;25.25
80976;BME280;70437;49.466;11.002;2023-06-22T12:02:57;97969.78;;;37.16;24.48
80976;BME280;70437;49.466;11.002;2023-06-22T12:05:29;97982.59;;;37.90;23.39
80976;BME280;70437;49.466;11.002;2023-06-22T12:07:59;97969.78;;;38.00;22.85
80976;BME280;70437;49.466;11.002;2023-06-22T12:10:28;97967.44;;;36.86;24.73
80976;BME280;70437;49.466;11.002;2023-06-22T12:13:15;97954.28;;;36.97;24.67
80976;BME280;70437;49.466;11.002;2023-06-22T12:15:43;97957.47;;;36.81;24.55
80976;BME280;70437;49.466;11.002;2023-06-22T12:18:12;97947.56;;;36.44;24.98
80976;BME280;70437;49.466;11.002;2023-06-22T12:20:42;97931.00;;;35.25;27.22
80976;BME280;70437;49.466;11.002;2023-06-22T12:23:09;97929.09;;;34.67;28.32
80976;BME280;70437;49.466;11.002;2023-06-22T12:25:40;97921.47;;;35.30;26.66
80976;BME280;70437;49.466;11.002;2023-06-22T12:28:10;97910.91;;;36.39;25.28
80976;BME280;70437;49.466;11.002;2023-06-22T12:30:38;97911.31;;;36.44;24.96
80976;BME280;70437;49.466;11.002;2023-06-22T12:33:06;97917.19;;;36.89;24.52
80976;BME280;70437;49.466;11.002;2023-06-22T12:35:34;97898.56;;;35.90;25.94
80976;BME280;70437;49.466;11.002;2023-06-22T12:38:02;97893.75;;;35.76;26.36
80976;BME280;70437;49.466;11.002;2023-06-22T12:40:31;97895.34;;;35.88;25.82
80976;BME280;70437;49.466;11.002;2023-06-22T12:43:00;97895.38;;;35.95;25.60
80976;BME280;70437;49.466;11.002;2023-06-22T12:45:29;97898.94;;;36.42;25.40
80976;BME280;70437;49.466;11.002;2023-06-22T12:48:01;97896.03;;;37.06;24.68
80976;BME280;70437;49.466;11.002;2023-06-22T12:50:31;97900.56;;;37.56;24.11
80976;BME280;70437;49.466;11.002;2023-06-22T12:52:59;97903.09;;;37.29;24.22
80976;BME280;70437;49.466;11.002;2023-06-22T12:55:30;97901.53;;;37.17;24.30
80976;BME280;70437;49.466;11.002;2023-06-22T12:58:01;97884.19;;;35.88;25.82
80976;BME280;70437;49.466;11.002;2023-06-22T13:00:31;97884.19;;;35.56;26.45
80976;BME280;70437;49.466;11.002;2023-06-22T13:03:00;97890.56;;;35.63;25.99
80976;BME280;70437;49.466;11.002;2023-06-22T13:05:28;97890.38;;;35.03;27.30
80976;BME280;70437;49.466;11.002;2023-06-22T13:07:56;97898.31;;;35.08;26.83
80976;BME280;70437;49.466;11.002;2023-06-22T13:10:24;97891.63;;;35.27;27.32
80976;BME280;70437;49.466;11.002;2023-06-22T13:12:52;97892.69;;;34.93;27.14
80976;BME280;70437;49.466;11.002;2023-06-22T13:15:22;97893.59;;;34.42;27.62
80976;BME280;70437;49.466;11.002;2023-06-22T13:17:51;97896.38;;;35.23;26.82